AFL1497 URMG-URSS
Flight info
| Callsign | AFL1497 |
|---|---|
| Flight time | 0h 56m |
| Altitude | 32000 |
| Route | NEGUB1T NEGUB B494 RISKA R227 MNW B967 ERSAR G487 BINOL BINOL1G |
| Aircraft | A320/M-SDE3FGHIRWY/LB1 |
Departure
| Time | 2026-05-04 16:42 |
|---|---|
| Airport | Akhmat Kadyrov Grozny International Airport (URMG) |
Arrival
| Time | 2026-05-04 17:39 |
|---|---|
| Airport | Sochi International Airport (URSS) |
| Time | Latitude | Longitude | Altitude | Speed | Heading |
|---|---|---|---|---|---|
| 2026-05-04 16:08 | 43.38616 | 45.70050 | 523 ft | 0 kts | 267° |
| 2026-05-04 16:36 | 43.38616 | 45.70049 | 523 ft | 1 kts | 267° |
| 2026-05-04 16:37 | 43.38668 | 45.69997 | 523 ft | 8 kts | 355° |
| 2026-05-04 16:37 | 43.38701 | 45.69994 | 523 ft | 4 kts | 358° |
| 2026-05-04 16:37 | 43.38710 | 45.69994 | 523 ft | 0 kts | 358° |
| 2026-05-04 16:38 | 43.38792 | 45.70012 | 522 ft | 13 kts | 38° |
| 2026-05-04 16:39 | 43.38839 | 45.70483 | 524 ft | 24 kts | 87° |
| 2026-05-04 16:39 | 43.38863 | 45.71066 | 522 ft | 33 kts | 86° |
| 2026-05-04 16:40 | 43.38866 | 45.71440 | 522 ft | 8 kts | 118° |
| 2026-05-04 16:40 | 43.38870 | 45.71494 | 522 ft | 2 kts | 308° |
| 2026-05-04 16:41 | 43.38878 | 45.71409 | 522 ft | 0 kts | 266° |
| 2026-05-04 16:41 | 43.38865 | 45.71101 | 523 ft | 70 kts | 266° |
| 2026-05-04 16:42 | 43.38719 | 45.67163 | 1519 ft | 156 kts | 267° |
| 2026-05-04 16:43 | 43.38587 | 45.63925 | 2412 ft | 189 kts | 267° |
| 2026-05-04 16:43 | 43.38422 | 45.59924 | 3055 ft | 233 kts | 267° |
| 2026-05-04 16:43 | 43.38318 | 45.57620 | 3684 ft | 247 kts | 267° |
| 2026-05-04 16:44 | 43.38192 | 45.47908 | 7223 ft | 262 kts | 294° |
| 2026-05-04 16:45 | 43.41042 | 45.45040 | 8589 ft | 277 kts | 355° |
| 2026-05-04 16:46 | 43.46954 | 45.44611 | 10958 ft | 291 kts | 358° |
| 2026-05-04 16:46 | 43.51071 | 45.44318 | 12308 ft | 307 kts | 359° |
| 2026-05-04 16:47 | 43.55441 | 45.43984 | 13635 ft | 319 kts | 355° |
| 2026-05-04 16:47 | 43.59887 | 45.43626 | 15192 ft | 321 kts | 354° |
| 2026-05-04 16:48 | 43.66680 | 45.43083 | 17225 ft | 331 kts | 355° |
| 2026-05-04 16:48 | 43.68989 | 45.42887 | 17870 ft | 334 kts | 352° |
| 2026-05-04 16:49 | 43.73301 | 45.40681 | 19053 ft | 335 kts | 321° |
| 2026-05-04 16:49 | 43.76393 | 45.35632 | 19363 ft | 362 kts | 295° |
| 2026-05-04 16:50 | 43.78886 | 45.29224 | 19685 ft | 392 kts | 295° |
| 2026-05-04 16:50 | 43.81541 | 45.22504 | 20609 ft | 402 kts | 296° |
| 2026-05-04 16:51 | 43.84251 | 45.15676 | 21579 ft | 408 kts | 296° |
| 2026-05-04 16:51 | 43.85619 | 45.12216 | 22055 ft | 411 kts | 295° |
| 2026-05-04 16:51 | 43.88362 | 45.05222 | 22975 ft | 415 kts | 295° |
| 2026-05-04 16:52 | 43.91123 | 44.98177 | 23824 ft | 421 kts | 295° |
| 2026-05-04 16:52 | 43.92524 | 44.94599 | 24243 ft | 424 kts | 295° |
| 2026-05-04 16:53 | 43.95340 | 44.87362 | 25041 ft | 429 kts | 295° |
| 2026-05-04 16:53 | 43.99621 | 44.76351 | 26189 ft | 435 kts | 295° |
| 2026-05-04 16:54 | 44.01060 | 44.72643 | 26550 ft | 438 kts | 295° |
| 2026-05-04 16:55 | 44.06551 | 44.57338 | 27872 ft | 444 kts | 284° |
| 2026-05-04 16:55 | 44.07754 | 44.48934 | 28491 ft | 445 kts | 277° |
| 2026-05-04 16:56 | 44.08760 | 44.40416 | 29110 ft | 448 kts | 276° |
| 2026-05-04 16:56 | 44.10276 | 44.27534 | 29982 ft | 452 kts | 276° |
| 2026-05-04 16:57 | 44.10782 | 44.23222 | 30344 ft | 451 kts | 276° |
| 2026-05-04 16:57 | 44.11791 | 44.14633 | 31101 ft | 449 kts | 276° |
| 2026-05-04 16:58 | 44.13275 | 44.01856 | 31928 ft | 446 kts | 276° |
| 2026-05-04 16:58 | 44.13763 | 43.97612 | 31954 ft | 443 kts | 276° |
| 2026-05-04 17:00 | 44.16640 | 43.72257 | 31952 ft | 442 kts | 276° |
| 2026-05-04 17:01 | 44.19006 | 43.51082 | 31953 ft | 443 kts | 276° |
| 2026-05-04 17:02 | 44.20870 | 43.34083 | 31954 ft | 444 kts | 276° |
| 2026-05-04 17:03 | 44.22258 | 43.21294 | 31949 ft | 446 kts | 276° |
| 2026-05-04 17:03 | 44.23617 | 43.08452 | 31951 ft | 446 kts | 273° |
| 2026-05-04 17:04 | 44.23399 | 42.99877 | 31950 ft | 442 kts | 259° |
| 2026-05-04 17:04 | 44.22495 | 42.91380 | 31951 ft | 443 kts | 259° |
| 2026-05-04 17:05 | 44.20686 | 42.74408 | 31952 ft | 445 kts | 259° |
| 2026-05-04 17:06 | 44.19312 | 42.61625 | 31951 ft | 444 kts | 259° |
| 2026-05-04 17:07 | 44.18390 | 42.50151 | 31953 ft | 447 kts | 263° |
| 2026-05-04 17:07 | 44.17887 | 42.40116 | 31950 ft | 447 kts | 263° |
| 2026-05-04 17:08 | 44.17136 | 42.27175 | 31955 ft | 447 kts | 262° |
| 2026-05-04 17:09 | 44.16571 | 42.18561 | 31954 ft | 447 kts | 262° |
| 2026-05-04 17:09 | 44.16002 | 42.09947 | 31954 ft | 447 kts | 262° |
| 2026-05-04 17:10 | 44.14592 | 41.88422 | 31936 ft | 447 kts | 262° |
| 2026-05-04 17:11 | 44.14014 | 41.79818 | 31924 ft | 446 kts | 262° |
| 2026-05-04 17:12 | 44.13133 | 41.66967 | 31920 ft | 447 kts | 262° |
| 2026-05-04 17:13 | 44.11039 | 41.45551 | 31913 ft | 443 kts | 248° |
| 2026-05-04 17:14 | 44.06275 | 41.29782 | 31905 ft | 445 kts | 245° |
| 2026-05-04 17:15 | 44.02650 | 41.17898 | 31893 ft | 446 kts | 244° |
| 2026-05-04 17:15 | 44.00564 | 41.11124 | 31322 ft | 465 kts | 244° |
| 2026-05-04 17:16 | 43.97993 | 41.02791 | 30842 ft | 471 kts | 244° |
| 2026-05-04 17:16 | 43.94130 | 40.90285 | 30094 ft | 473 kts | 243° |
| 2026-05-04 17:17 | 43.92828 | 40.86087 | 29850 ft | 475 kts | 243° |
| 2026-05-04 17:17 | 43.88898 | 40.73438 | 29094 ft | 478 kts | 243° |
| 2026-05-04 17:18 | 43.87573 | 40.69204 | 28841 ft | 479 kts | 243° |
| 2026-05-04 17:18 | 43.84882 | 40.60732 | 27931 ft | 481 kts | 243° |
| 2026-05-04 17:19 | 43.82160 | 40.52251 | 26441 ft | 484 kts | 243° |
| 2026-05-04 17:19 | 43.79471 | 40.43867 | 25001 ft | 457 kts | 244° |
| 2026-05-04 17:20 | 43.77011 | 40.36158 | 23682 ft | 416 kts | 244° |
| 2026-05-04 17:20 | 43.74680 | 40.28931 | 22472 ft | 408 kts | 244° |
| 2026-05-04 17:20 | 43.73528 | 40.25369 | 21930 ft | 404 kts | 244° |
| 2026-05-04 17:21 | 43.71251 | 40.18336 | 20875 ft | 397 kts | 244° |
| 2026-05-04 17:21 | 43.68283 | 40.12106 | 19905 ft | 383 kts | 224° |
| 2026-05-04 17:22 | 43.66273 | 40.09695 | 19476 ft | 387 kts | 213° |
| 2026-05-04 17:22 | 43.63961 | 40.07798 | 19048 ft | 386 kts | 203° |
| 2026-05-04 17:23 | 43.56668 | 40.03244 | 17947 ft | 383 kts | 202° |
| 2026-05-04 17:23 | 43.54249 | 40.01727 | 17536 ft | 381 kts | 202° |
| 2026-05-04 17:23 | 43.49452 | 39.98722 | 16715 ft | 377 kts | 202° |
| 2026-05-04 17:24 | 43.47070 | 39.97234 | 16308 ft | 375 kts | 202° |
| 2026-05-04 17:24 | 43.39729 | 39.93584 | 14445 ft | 377 kts | 197° |
| 2026-05-04 17:25 | 43.37247 | 39.92460 | 13752 ft | 371 kts | 197° |
| 2026-05-04 17:25 | 43.32478 | 39.90297 | 12444 ft | 355 kts | 198° |
| 2026-05-04 17:26 | 43.27838 | 39.88195 | 11163 ft | 347 kts | 198° |
| 2026-05-04 17:26 | 43.21155 | 39.85168 | 10375 ft | 317 kts | 198° |
| 2026-05-04 17:27 | 43.17129 | 39.83348 | 10120 ft | 297 kts | 199° |
| 2026-05-04 17:27 | 43.13264 | 39.81593 | 9768 ft | 289 kts | 199° |
| 2026-05-04 17:28 | 43.09502 | 39.79903 | 9114 ft | 284 kts | 199° |
| 2026-05-04 17:29 | 43.03916 | 39.77387 | 8032 ft | 281 kts | 200° |
| 2026-05-04 17:29 | 43.01064 | 39.71573 | 7562 ft | 276 kts | 288° |
| 2026-05-04 17:30 | 43.05727 | 39.68959 | 7180 ft | 278 kts | 27° |
| 2026-05-04 17:31 | 43.09051 | 39.71704 | 6749 ft | 280 kts | 31° |
| 2026-05-04 17:31 | 43.13949 | 39.75839 | 5322 ft | 268 kts | 31° |
| 2026-05-04 17:32 | 43.17110 | 39.78541 | 4363 ft | 268 kts | 31° |
| 2026-05-04 17:33 | 43.22147 | 39.80875 | 2954 ft | 257 kts | 5° |
| 2026-05-04 17:33 | 43.23918 | 39.81187 | 2647 ft | 243 kts | 10° |
| 2026-05-04 17:34 | 43.28190 | 39.82745 | 2479 ft | 191 kts | 33° |
| 2026-05-04 17:34 | 43.29274 | 39.83682 | 2396 ft | 177 kts | 33° |
| 2026-05-04 17:35 | 43.32111 | 39.85958 | 2168 ft | 143 kts | 31° |
| 2026-05-04 17:35 | 43.33834 | 39.87257 | 2030 ft | 140 kts | 31° |
| 2026-05-04 17:35 | 43.34691 | 39.87901 | 1880 ft | 141 kts | 31° |
| 2026-05-04 17:36 | 43.35551 | 39.88545 | 1716 ft | 141 kts | 32° |
| 2026-05-04 17:36 | 43.36413 | 39.89197 | 1565 ft | 142 kts | 32° |
| 2026-05-04 17:36 | 43.37277 | 39.89847 | 1377 ft | 142 kts | 32° |
| 2026-05-04 17:36 | 43.38148 | 39.90495 | 1195 ft | 142 kts | 33° |
| 2026-05-04 17:37 | 43.39018 | 39.91147 | 1026 ft | 143 kts | 33° |
| 2026-05-04 17:37 | 43.39891 | 39.91804 | 847 ft | 143 kts | 32° |
| 2026-05-04 17:37 | 43.40753 | 39.92457 | 660 ft | 141 kts | 33° |
| 2026-05-04 17:37 | 43.41617 | 39.93099 | 482 ft | 140 kts | 32° |
| 2026-05-04 17:38 | 43.42475 | 39.93744 | 302 ft | 141 kts | 31° |
| 2026-05-04 17:38 | 43.43331 | 39.94380 | 130 ft | 140 kts | 32° |
| 2026-05-04 17:38 | 43.44128 | 39.94985 | 82 ft | 112 kts | 28° |
| 2026-05-04 17:38 | 43.44663 | 39.95386 | 89 ft | 63 kts | 28° |
| 2026-05-04 17:39 | 43.45061 | 39.95685 | 93 ft | 27 kts | 28° |
| 2026-05-04 17:39 | 43.45212 | 39.95799 | 93 ft | 23 kts | 29° |
| 2026-05-04 17:39 | 43.45279 | 39.95837 | 94 ft | 4 kts | 353° |
| 2026-05-04 17:40 | 43.45288 | 39.95789 | 93 ft | 11 kts | 252° |
| 2026-05-04 17:40 | 43.45261 | 39.95719 | 92 ft | 1 kts | 240° |
| 2026-05-04 17:40 | 43.45258 | 39.95712 | 93 ft | 1 kts | 240° |
| 2026-05-04 17:40 | 43.45255 | 39.95705 | 93 ft | 1 kts | 240° |
| 2026-05-04 17:41 | 43.45253 | 39.95701 | 90 ft | 0 kts | 240° |
| 2026-05-04 17:41 | 43.45253 | 39.95700 | 91 ft | 0 kts | 240° |
| 2026-05-04 17:41 | 43.45246 | 39.95684 | 91 ft | 4 kts | 240° |
| 2026-05-04 17:42 | 43.45216 | 39.95616 | 91 ft | 15 kts | 237° |
| 2026-05-04 17:42 | 43.45156 | 39.95494 | 92 ft | 16 kts | 235° |
| 2026-05-04 17:42 | 43.45097 | 39.95367 | 90 ft | 16 kts | 242° |
| 2026-05-04 17:42 | 43.45053 | 39.95238 | 87 ft | 14 kts | 245° |
| 2026-05-04 17:43 | 43.45013 | 39.95120 | 83 ft | 10 kts | 244° |
| 2026-05-04 17:43 | 43.44962 | 39.95033 | 82 ft | 13 kts | 240° |
| 2026-05-04 17:43 | 43.44919 | 39.94909 | 73 ft | 15 kts | 245° |
| 2026-05-04 17:43 | 43.44873 | 39.94773 | 69 ft | 16 kts | 245° |
| 2026-05-04 17:44 | 43.44828 | 39.94641 | 70 ft | 14 kts | 244° |
| 2026-05-04 17:44 | 43.44789 | 39.94527 | 67 ft | 9 kts | 245° |
| 2026-05-04 17:44 | 43.44765 | 39.94456 | 69 ft | 7 kts | 245° |
| 2026-05-04 17:44 | 43.44745 | 39.94400 | 67 ft | 6 kts | 245° |
| 2026-05-04 17:45 | 43.44728 | 39.94349 | 67 ft | 10 kts | 245° |
| 2026-05-04 17:45 | 43.44698 | 39.94261 | 72 ft | 9 kts | 245° |
| 2026-05-04 17:45 | 43.44667 | 39.94170 | 65 ft | 10 kts | 245° |
| 2026-05-04 17:45 | 43.44647 | 39.94091 | 69 ft | 8 kts | 274° |
| 2026-05-04 17:46 | 43.44678 | 39.94050 | 67 ft | 4 kts | 333° |
| 2026-05-04 17:46 | 43.44688 | 39.94043 | 66 ft | 2 kts | 334° |
| 2026-05-04 17:46 | 43.44695 | 39.94039 | 75 ft | 0 kts | 334° |
| 2026-05-04 17:46 | 43.44696 | 39.94038 | 68 ft | 0 kts | 334° |